sensor_id;sensor_type;location;lat;lon;timestamp;temperature;humidity
29551;DHT22;16488;52.396;10.696;2022-08-21T00:00:32;16.90;99.90
29551;DHT22;16488;52.396;10.696;2022-08-21T00:03:03;16.70;99.90
29551;DHT22;16488;52.396;10.696;2022-08-21T00:05:31;16.60;99.90
29551;DHT22;16488;52.396;10.696;2022-08-21T00:07:57;16.40;99.90
29551;DHT22;16488;52.396;10.696;2022-08-21T00:10:23;16.20;99.90
29551;DHT22;16488;52.396;10.696;2022-08-21T00:12:49;15.90;99.90
29551;DHT22;16488;52.396;10.696;2022-08-21T00:15:18;15.80;99.90
29551;DHT22;16488;52.396;10.696;2022-08-21T00:17:44;15.70;99.90
29551;DHT22;16488;52.396;10.696;2022-08-21T00:20:11;15.70;99.90
29551;DHT22;16488;52.396;10.696;2022-08-21T00:22:37;15.70;99.90
29551;DHT22;16488;52.396;10.696;2022-08-21T00:25:04;15.70;99.90
29551;DHT22;16488;52.396;10.696;2022-08-21T00:27:31;15.60;99.90
29551;DHT22;16488;52.396;10.696;2022-08-21T00:29:57;15.60;99.90
29551;DHT22;16488;52.396;10.696;2022-08-21T00:32:24;15.50;99.90
29551;DHT22;16488;52.396;10.696;2022-08-21T00:34:51;15.40;99.90
29551;DHT22;16488;52.396;10.696;2022-08-21T00:37:17;15.40;99.90
29551;DHT22;16488;52.396;10.696;2022-08-21T00:39:42;15.20;99.90
29551;DHT22;16488;52.396;10.696;2022-08-21T00:42:09;15.20;99.90
29551;DHT22;16488;52.396;10.696;2022-08-21T00:44:35;15.10;99.90
29551;DHT22;16488;52.396;10.696;2022-08-21T00:47:00;15.10;99.90
29551;DHT22;16488;52.396;10.696;2022-08-21T00:49:26;15.00;99.90
29551;DHT22;16488;52.396;10.696;2022-08-21T00:51:56;15.00;99.90
29551;DHT22;16488;52.396;10.696;2022-08-21T00:54:25;15.00;99.90
29551;DHT22;16488;52.396;10.696;2022-08-21T00:56:55;14.90;99.90
29551;DHT22;16488;52.396;10.696;2022-08-21T00:59:23;14.80;99.90
29551;DHT22;16488;52.396;10.696;2022-08-21T01:01:50;14.60;99.90
29551;DHT22;16488;52.396;10.696;2022-08-21T01:04:18;14.40;99.90
29551;DHT22;16488;52.396;10.696;2022-08-21T01:06:43;14.30;99.90
29551;DHT22;16488;52.396;10.696;2022-08-21T01:09:09;14.30;99.90
29551;DHT22;16488;52.396;10.696;2022-08-21T01:11:35;14.20;99.90
29551;DHT22;16488;52.396;10.696;2022-08-21T01:14:02;14.10;99.90
29551;DHT22;16488;52.396;10.696;2022-08-21T01:16:27;14.10;99.90
29551;DHT22;16488;52.396;10.696;2022-08-21T01:18:53;14.10;99.90
29551;DHT22;16488;52.396;10.696;2022-08-21T01:21:24;14.20;99.90
29551;DHT22;16488;52.396;10.696;2022-08-21T01:23:52;14.20;99.90
29551;DHT22;16488;52.396;10.696;2022-08-21T01:26:22;14.10;99.90
29551;DHT22;16488;52.396;10.696;2022-08-21T01:31:29;14.10;99.90
29551;DHT22;16488;52.396;10.696;2022-08-21T01:33:56;14.10;99.90
29551;DHT22;16488;52.396;10.696;2022-08-21T01:36:22;14.00;99.90
29551;DHT22;16488;52.396;10.696;2022-08-21T01:38:48;13.90;99.90
29551;DHT22;16488;52.396;10.696;2022-08-21T01:41:15;13.90;99.90
29551;DHT22;16488;52.396;10.696;2022-08-21T01:43:41;14.00;99.90
29551;DHT22;16488;52.396;10.696;2022-08-21T01:46:07;14.10;99.90
29551;DHT22;16488;52.396;10.696;2022-08-21T01:48:33;14.20;99.90
29551;DHT22;16488;52.396;10.696;2022-08-21T01:50:59;14.20;99.90
29551;DHT22;16488;52.396;10.696;2022-08-21T01:53:24;14.30;99.90
29551;DHT22;16488;52.396;10.696;2022-08-21T01:55:50;14.40;99.90
29551;DHT22;16488;52.396;10.696;2022-08-21T01:58:15;14.40;99.90
29551;DHT22;16488;52.396;10.696;2022-08-21T02:00:41;14.20;99.90
29551;DHT22;16488;52.396;10.696;2022-08-21T02:03:07;14.10;99.90
29551;DHT22;16488;52.396;10.696;2022-08-21T02:05:32;13.90;99.90
29551;DHT22;16488;52.396;10.696;2022-08-21T02:07:58;13.70;99.90
29551;DHT22;16488;52.396;10.696;2022-08-21T02:10:28;13.60;99.90
29551;DHT22;16488;52.396;10.696;2022-08-21T02:12:55;13.60;99.90
29551;DHT22;16488;52.396;10.696;2022-08-21T02:15:21;13.60;99.90
29551;DHT22;16488;52.396;10.696;2022-08-21T02:17:54;13.50;99.90
29551;DHT22;16488;52.396;10.696;2022-08-21T02:22:54;13.30;99.90
29551;DHT22;16488;52.396;10.696;2022-08-21T02:25:21;13.20;99.90
29551;DHT22;16488;52.396;10.696;2022-08-21T02:27:47;13.10;99.90
29551;DHT22;16488;52.396;10.696;2022-08-21T02:30:16;13.00;99.90
29551;DHT22;16488;52.396;10.696;2022-08-21T02:32:42;13.00;99.90
29551;DHT22;16488;52.396;10.696;2022-08-21T02:35:10;12.90;99.90
29551;DHT22;16488;52.396;10.696;2022-08-21T02:38:06;12.80;99.90
29551;DHT22;16488;52.396;10.696;2022-08-21T02:40:35;12.80;99.90
29551;DHT22;16488;52.396;10.696;2022-08-21T02:43:02;12.80;99.90
29551;DHT22;16488;52.396;10.696;2022-08-21T02:45:28;12.70;99.90
29551;DHT22;16488;52.396;10.696;2022-08-21T02:47:57;12.70;99.90
29551;DHT22;16488;52.396;10.696;2022-08-21T02:50:27;12.60;99.90
29551;DHT22;16488;52.396;10.696;2022-08-21T02:52:53;12.50;99.90
29551;DHT22;16488;52.396;10.696;2022-08-21T02:55:20;12.50;99.90
29551;DHT22;16488;52.396;10.696;2022-08-21T02:57:47;12.40;99.90
29551;DHT22;16488;52.396;10.696;2022-08-21T03:00:14;12.30;99.90
29551;DHT22;16488;52.396;10.696;2022-08-21T03:02:40;12.40;99.90
29551;DHT22;16488;52.396;10.696;2022-08-21T03:05:08;12.40;99.90
29551;DHT22;16488;52.396;10.696;2022-08-21T03:07:35;12.40;99.90
29551;DHT22;16488;52.396;10.696;2022-08-21T03:10:01;12.40;99.90
29551;DHT22;16488;52.396;10.696;2022-08-21T03:12:27;12.30;99.90
29551;DHT22;16488;52.396;10.696;2022-08-21T03:14:53;12.20;99.90
29551;DHT22;16488;52.396;10.696;2022-08-21T03:17:18;12.10;99.90
29551;DHT22;16488;52.396;10.696;2022-08-21T03:19:44;12.10;99.90
29551;DHT22;16488;52.396;10.696;2022-08-21T03:22:10;12.00;99.90
29551;DHT22;16488;52.396;10.696;2022-08-21T03:24:35;11.90;99.90
29551;DHT22;16488;52.396;10.696;2022-08-21T03:27:01;11.90;99.90
29551;DHT22;16488;52.396;10.696;2022-08-21T03:29:27;12.00;99.90
29551;DHT22;16488;52.396;10.696;2022-08-21T03:31:53;12.00;99.90
29551;DHT22;16488;52.396;10.696;2022-08-21T03:34:20;12.00;99.90
29551;DHT22;16488;52.396;10.696;2022-08-21T03:36:47;11.90;99.90
29551;DHT22;16488;52.396;10.696;2022-08-21T03:39:13;11.90;99.90
29551;DHT22;16488;52.396;10.696;2022-08-21T03:41:39;11.90;99.90
29551;DHT22;16488;52.396;10.696;2022-08-21T03:44:04;11.90;99.90
29551;DHT22;16488;52.396;10.696;2022-08-21T03:46:30;11.90;99.90
29551;DHT22;16488;52.396;10.696;2022-08-21T03:48:55;11.90;99.90
29551;DHT22;16488;52.396;10.696;2022-08-21T03:51:21;11.80;99.90
29551;DHT22;16488;52.396;10.696;2022-08-21T03:53:47;11.80;99.90
29551;DHT22;16488;52.396;10.696;2022-08-21T03:56:13;11.80;99.90
29551;DHT22;16488;52.396;10.696;2022-08-21T03:58:38;11.80;99.90
29551;DHT22;16488;52.396;10.696;2022-08-21T04:01:05;11.90;99.90
29551;DHT22;16488;52.396;10.696;2022-08-21T04:03:31;11.80;99.90
29551;DHT22;16488;52.396;10.696;2022-08-21T04:05:57;11.70;99.90
29551;DHT22;16488;52.396;10.696;2022-08-21T04:08:23;11.70;99.90
29551;DHT22;16488;52.396;10.696;2022-08-21T04:10:52;11.70;99.90
29551;DHT22;16488;52.396;10.696;2022-08-21T04:13:19;11.70;99.90
29551;DHT22;16488;52.396;10.696;2022-08-21T04:15:45;11.70;99.90
29551;DHT22;16488;52.396;10.696;2022-08-21T04:18:11;11.70;99.90
29551;DHT22;16488;52.396;10.696;2022-08-21T04:20:36;11.80;99.90
29551;DHT22;16488;52.396;10.696;2022-08-21T04:23:03;11.80;99.90
29551;DHT22;16488;52.396;10.696;2022-08-21T04:25:29;11.80;99.90
29551;DHT22;16488;52.396;10.696;2022-08-21T04:27:54;11.80;99.90
29551;DHT22;16488;52.396;10.696;2022-08-21T04:30:21;11.80;99.90
29551;DHT22;16488;52.396;10.696;2022-08-21T04:32:47;11.70;99.90
29551;DHT22;16488;52.396;10.696;2022-08-21T04:35:14;11.60;99.90
29551;DHT22;16488;52.396;10.696;2022-08-21T04:37:41;11.60;99.90
29551;DHT22;16488;52.396;10.696;2022-08-21T04:40:07;11.50;99.90
29551;DHT22;16488;52.396;10.696;2022-08-21T04:42:44;11.50;99.90
29551;DHT22;16488;52.396;10.696;2022-08-21T04:47:53;11.40;99.90
29551;DHT22;16488;52.396;10.696;2022-08-21T04:50:27;11.40;99.90
29551;DHT22;16488;52.396;10.696;2022-08-21T04:52:55;11.40;99.90
29551;DHT22;16488;52.396;10.696;2022-08-21T04:55:21;11.40;99.90
29551;DHT22;16488;52.396;10.696;2022-08-21T04:57:48;11.40;99.90
29551;DHT22;16488;52.396;10.696;2022-08-21T05:00:19;11.50;99.90
29551;DHT22;16488;52.396;10.696;2022-08-21T05:02:45;11.50;99.90
29551;DHT22;16488;52.396;10.696;2022-08-21T05:05:12;11.50;99.90
29551;DHT22;16488;52.396;10.696;2022-08-21T05:07:38;11.60;99.90
29551;DHT22;16488;52.396;10.696;2022-08-21T05:10:05;11.60;99.90
29551;DHT22;16488;52.396;10.696;2022-08-21T05:12:33;11.60;99.90
29551;DHT22;16488;52.396;10.696;2022-08-21T05:14:59;11.70;99.90
29551;DHT22;16488;52.396;10.696;2022-08-21T05:17:25;11.80;99.90
29551;DHT22;16488;52.396;10.696;2022-08-21T05:19:50;11.90;99.90
29551;DHT22;16488;52.396;10.696;2022-08-21T05:22:21;11.90;99.90
29551;DHT22;16488;52.396;10.696;2022-08-21T05:24:47;11.90;99.90
29551;DHT22;16488;52.396;10.696;2022-08-21T05:27:12;12.00;99.90
29551;DHT22;16488;52.396;10.696;2022-08-21T05:29:38;12.00;99.90
29551;DHT22;16488;52.396;10.696;2022-08-21T05:32:09;12.00;99.90
29551;DHT22;16488;52.396;10.696;2022-08-21T05:34:34;12.10;99.90
29551;DHT22;16488;52.396;10.696;2022-08-21T05:37:00;12.10;99.90
29551;DHT22;16488;52.396;10.696;2022-08-21T05:39:26;12.10;99.90
29551;DHT22;16488;52.396;10.696;2022-08-21T05:41:51;12.20;99.90
29551;DHT22;16488;52.396;10.696;2022-08-21T05:44:17;12.40;99.90
29551;DHT22;16488;52.396;10.696;2022-08-21T05:46:42;12.50;99.90
29551;DHT22;16488;52.396;10.696;2022-08-21T05:49:08;12.70;99.90
29551;DHT22;16488;52.396;10.696;2022-08-21T05:51:33;12.80;99.90
29551;DHT22;16488;52.396;10.696;2022-08-21T05:53:59;13.00;99.90
29551;DHT22;16488;52.396;10.696;2022-08-21T05:56:25;13.10;99.90
29551;DHT22;16488;52.396;10.696;2022-08-21T05:58:50;13.30;99.90
29551;DHT22;16488;52.396;10.696;2022-08-21T06:01:16;13.40;99.90
29551;DHT22;16488;52.396;10.696;2022-08-21T06:03:42;13.60;99.90
29551;DHT22;16488;52.396;10.696;2022-08-21T06:06:08;13.70;99.90
29551;DHT22;16488;52.396;10.696;2022-08-21T06:08:34;13.80;99.90
29551;DHT22;16488;52.396;10.696;2022-08-21T06:11:00;14.00;99.90
29551;DHT22;16488;52.396;10.696;2022-08-21T06:13:27;14.10;99.90
29551;DHT22;16488;52.396;10.696;2022-08-21T06:16:05;14.30;99.90
29551;DHT22;16488;52.396;10.696;2022-08-21T06:18:32;14.40;99.90
29551;DHT22;16488;52.396;10.696;2022-08-21T06:20:58;14.60;99.90
29551;DHT22;16488;52.396;10.696;2022-08-21T06:23:23;14.70;99.90
29551;DHT22;16488;52.396;10.696;2022-08-21T06:25:49;14.80;99.90
29551;DHT22;16488;52.396;10.696;2022-08-21T06:28:14;15.00;99.90
29551;DHT22;16488;52.396;10.696;2022-08-21T06:30:40;15.10;99.90
29551;DHT22;16488;52.396;10.696;2022-08-21T06:33:06;15.30;99.90
29551;DHT22;16488;52.396;10.696;2022-08-21T06:35:32;15.40;99.90
29551;DHT22;16488;52.396;10.696;2022-08-21T06:37:58;15.60;99.90
29551;DHT22;16488;52.396;10.696;2022-08-21T06:40:24;15.80;99.90
29551;DHT22;16488;52.396;10.696;2022-08-21T06:42:49;16.00;99.90
29551;DHT22;16488;52.396;10.696;2022-08-21T06:45:15;16.20;99.90
29551;DHT22;16488;52.396;10.696;2022-08-21T06:47:40;16.40;99.90
29551;DHT22;16488;52.396;10.696;2022-08-21T06:50:07;16.60;99.90
29551;DHT22;16488;52.396;10.696;2022-08-21T06:52:34;16.80;99.90
29551;DHT22;16488;52.396;10.696;2022-08-21T06:55:00;16.90;99.90
29551;DHT22;16488;52.396;10.696;2022-08-21T06:57:25;17.10;99.90
29551;DHT22;16488;52.396;10.696;2022-08-21T06:59:51;17.40;99.90
29551;DHT22;16488;52.396;10.696;2022-08-21T07:02:17;17.60;99.90
29551;DHT22;16488;52.396;10.696;2022-08-21T07:04:43;17.80;99.90
29551;DHT22;16488;52.396;10.696;2022-08-21T07:07:09;18.10;99.90
29551;DHT22;16488;52.396;10.696;2022-08-21T07:09:34;18.40;99.90
29551;DHT22;16488;52.396;10.696;2022-08-21T07:12:00;18.50;99.90
29551;DHT22;16488;52.396;10.696;2022-08-21T07:14:27;18.60;99.90
29551;DHT22;16488;52.396;10.696;2022-08-21T07:16:52;18.70;99.90
29551;DHT22;16488;52.396;10.696;2022-08-21T07:19:18;18.70;99.90
29551;DHT22;16488;52.396;10.696;2022-08-21T07:21:44;18.80;99.90
29551;DHT22;16488;52.396;10.696;2022-08-21T07:24:09;18.90;99.90
29551;DHT22;16488;52.396;10.696;2022-08-21T07:26:36;18.90;99.90
29551;DHT22;16488;52.396;10.696;2022-08-21T07:29:02;18.90;99.90
29551;DHT22;16488;52.396;10.696;2022-08-21T07:31:28;19.00;99.90
29551;DHT22;16488;52.396;10.696;2022-08-21T07:33:53;19.10;99.90
29551;DHT22;16488;52.396;10.696;2022-08-21T07:36:19;19.20;99.90
29551;DHT22;16488;52.396;10.696;2022-08-21T07:38:45;19.30;99.90
29551;DHT22;16488;52.396;10.696;2022-08-21T07:41:17;19.40;99.90
29551;DHT22;16488;52.396;10.696;2022-08-21T07:43:44;19.50;99.90
29551;DHT22;16488;52.396;10.696;2022-08-21T07:46:11;19.50;99.90
29551;DHT22;16488;52.396;10.696;2022-08-21T07:48:37;19.60;99.90
29551;DHT22;16488;52.396;10.696;2022-08-21T07:51:07;19.60;99.90
29551;DHT22;16488;52.396;10.696;2022-08-21T07:53:34;19.60;99.90
29551;DHT22;16488;52.396;10.696;2022-08-21T07:56:01;19.60;99.90
29551;DHT22;16488;52.396;10.696;2022-08-21T07:58:27;19.70;99.90
29551;DHT22;16488;52.396;10.696;2022-08-21T08:00:52;19.70;99.90
29551;DHT22;16488;52.396;10.696;2022-08-21T08:03:18;19.70;99.90
29551;DHT22;16488;52.396;10.696;2022-08-21T08:05:44;19.80;99.90
29551;DHT22;16488;52.396;10.696;2022-08-21T08:08:09;19.90;99.90
29551;DHT22;16488;52.396;10.696;2022-08-21T08:10:35;19.90;99.90
29551;DHT22;16488;52.396;10.696;2022-08-21T08:13:02;20.00;99.90
29551;DHT22;16488;52.396;10.696;2022-08-21T08:15:28;20.00;99.90
29551;DHT22;16488;52.396;10.696;2022-08-21T08:17:54;20.00;99.90
29551;DHT22;16488;52.396;10.696;2022-08-21T08:20:20;20.10;99.80
29551;DHT22;16488;52.396;10.696;2022-08-21T08:22:48;20.10;99.90
29551;DHT22;16488;52.396;10.696;2022-08-21T08:25:15;20.30;99.90
29551;DHT22;16488;52.396;10.696;2022-08-21T08:27:41;20.50;99.90
29551;DHT22;16488;52.396;10.696;2022-08-21T08:30:09;20.70;99.90
29551;DHT22;16488;52.396;10.696;2022-08-21T08:32:35;20.90;99.90
29551;DHT22;16488;52.396;10.696;2022-08-21T08:35:02;21.00;99.90
29551;DHT22;16488;52.396;10.696;2022-08-21T08:37:27;21.10;99.90
29551;DHT22;16488;52.396;10.696;2022-08-21T08:39:53;21.20;98.90
29551;DHT22;16488;52.396;10.696;2022-08-21T08:42:30;21.10;98.80
29551;DHT22;16488;52.396;10.696;2022-08-21T08:44:59;21.10;98.80
29551;DHT22;16488;52.396;10.696;2022-08-21T08:47:27;21.10;99.00
29551;DHT22;16488;52.396;10.696;2022-08-21T08:50:00;21.20;97.00
29551;DHT22;16488;52.396;10.696;2022-08-21T08:52:37;21.20;97.10
29551;DHT22;16488;52.396;10.696;2022-08-21T08:55:11;21.20;96.50
29551;DHT22;16488;52.396;10.696;2022-08-21T08:57:39;21.30;96.50
29551;DHT22;16488;52.396;10.696;2022-08-21T09:00:11;21.40;96.90
29551;DHT22;16488;52.396;10.696;2022-08-21T09:02:39;21.40;97.40
29551;DHT22;16488;52.396;10.696;2022-08-21T09:05:06;21.40;97.90
29551;DHT22;16488;52.396;10.696;2022-08-21T09:11:02;21.40;99.60
29551;DHT22;16488;52.396;10.696;2022-08-21T09:27:13;21.40;99.90
29551;DHT22;16488;52.396;10.696;2022-08-21T09:29:41;21.40;99.90
29551;DHT22;16488;52.396;10.696;2022-08-21T09:32:19;21.50;99.90
29551;DHT22;16488;52.396;10.696;2022-08-21T09:37:30;21.80;99.90
29551;DHT22;16488;52.396;10.696;2022-08-21T09:39:57;21.80;99.90
29551;DHT22;16488;52.396;10.696;2022-08-21T09:42:32;21.90;99.90
29551;DHT22;16488;52.396;10.696;2022-08-21T09:45:16;21.90;99.90
29551;DHT22;16488;52.396;10.696;2022-08-21T09:47:42;22.00;99.90
29551;DHT22;16488;52.396;10.696;2022-08-21T09:50:21;22.10;99.60
29551;DHT22;16488;52.396;10.696;2022-08-21T09:52:56;22.10;99.90
29551;DHT22;16488;52.396;10.696;2022-08-21T09:56:16;22.10;99.90
29551;DHT22;16488;52.396;10.696;2022-08-21T09:58:51;22.20;99.90
29551;DHT22;16488;52.396;10.696;2022-08-21T10:01:24;22.30;99.90
29551;DHT22;16488;52.396;10.696;2022-08-21T10:04:06;22.60;99.90
29551;DHT22;16488;52.396;10.696;2022-08-21T10:06:32;22.80;99.90
29551;DHT22;16488;52.396;10.696;2022-08-21T10:09:07;23.00;99.90
29551;DHT22;16488;52.396;10.696;2022-08-21T10:11:34;23.00;99.70
29551;DHT22;16488;52.396;10.696;2022-08-21T10:14:37;22.80;99.90
29551;DHT22;16488;52.396;10.696;2022-08-21T10:20:09;23.00;99.30
29551;DHT22;16488;52.396;10.696;2022-08-21T10:25:35;22.80;98.70
29551;DHT22;16488;52.396;10.696;2022-08-21T10:38:59;22.80;97.50
29551;DHT22;16488;52.396;10.696;2022-08-21T10:44:42;23.10;96.10
29551;DHT22;16488;52.396;10.696;2022-08-21T10:47:22;23.30;93.90
29551;DHT22;16488;52.396;10.696;2022-08-21T10:50:00;23.30;93.50
29551;DHT22;16488;52.396;10.696;2022-08-21T10:52:36;23.40;92.50
29551;DHT22;16488;52.396;10.696;2022-08-21T10:55:12;23.30;92.10
29551;DHT22;16488;52.396;10.696;2022-08-21T10:57:50;23.40;92.60
29551;DHT22;16488;52.396;10.696;2022-08-21T11:00:22;23.50;92.70
29551;DHT22;16488;52.396;10.696;2022-08-21T11:03:04;23.70;91.30
29551;DHT22;16488;52.396;10.696;2022-08-21T11:05:53;23.80;90.30
29551;DHT22;16488;52.396;10.696;2022-08-21T11:08:32;23.90;90.30
29551;DHT22;16488;52.396;10.696;2022-08-21T11:11:10;24.00;89.10
29551;DHT22;16488;52.396;10.696;2022-08-21T11:13:43;24.10;87.20
29551;DHT22;16488;52.396;10.696;2022-08-21T11:16:36;24.20;86.80
29551;DHT22;16488;52.396;10.696;2022-08-21T11:19:12;24.20;86.60
29551;DHT22;16488;52.396;10.696;2022-08-21T11:29:27;24.60;84.40
29551;DHT22;16488;52.396;10.696;2022-08-21T11:37:30;24.50;82.20
29551;DHT22;16488;52.396;10.696;2022-08-21T11:45:35;24.40;84.60
29551;DHT22;16488;52.396;10.696;2022-08-21T11:48:43;24.60;82.50
29551;DHT22;16488;52.396;10.696;2022-08-21T11:51:13;24.70;82.50
29551;DHT22;16488;52.396;10.696;2022-08-21T11:53:51;24.80;82.00
29551;DHT22;16488;52.396;10.696;2022-08-21T11:56:33;24.80;81.20
29551;DHT22;16488;52.396;10.696;2022-08-21T11:59:04;24.70;80.70
29551;DHT22;16488;52.396;10.696;2022-08-21T12:01:36;24.30;82.20
29551;DHT22;16488;52.396;10.696;2022-08-21T12:04:08;24.20;82.50
29551;DHT22;16488;52.396;10.696;2022-08-21T12:06:40;24.10;80.00
29551;DHT22;16488;52.396;10.696;2022-08-21T12:09:30;24.20;81.20
29551;DHT22;16488;52.396;10.696;2022-08-21T12:14:51;24.60;79.30
29551;DHT22;16488;52.396;10.696;2022-08-21T12:17:23;24.60;78.60
29551;DHT22;16488;52.396;10.696;2022-08-21T12:23:01;25.00;78.70
29551;DHT22;16488;52.396;10.696;2022-08-21T12:25:38;25.30;75.50
29551;DHT22;16488;52.396;10.696;2022-08-21T12:28:14;25.20;74.90
29551;DHT22;16488;52.396;10.696;2022-08-21T12:30:43;25.00;75.10
29551;DHT22;16488;52.396;10.696;2022-08-21T12:35:52;24.80;76.80
29551;DHT22;16488;52.396;10.696;2022-08-21T12:38:49;24.70;76.90
29551;DHT22;16488;52.396;10.696;2022-08-21T12:41:20;24.50;77.00
29551;DHT22;16488;52.396;10.696;2022-08-21T12:43:51;24.40;75.60
29551;DHT22;16488;52.396;10.696;2022-08-21T12:46:46;24.30;76.30
29551;DHT22;16488;52.396;10.696;2022-08-21T12:49:16;24.40;75.30
29551;DHT22;16488;52.396;10.696;2022-08-21T12:51:59;24.50;75.40
29551;DHT22;16488;52.396;10.696;2022-08-21T12:54:41;24.50;74.40
29551;DHT22;16488;52.396;10.696;2022-08-21T12:57:08;24.40;75.40
29551;DHT22;16488;52.396;10.696;2022-08-21T12:59:42;24.30;75.20
29551;DHT22;16488;52.396;10.696;2022-08-21T13:02:19;24.40;75.50
29551;DHT22;16488;52.396;10.696;2022-08-21T13:04:46;24.60;73.90
29551;DHT22;16488;52.396;10.696;2022-08-21T13:07:16;24.60;73.10
29551;DHT22;16488;52.396;10.696;2022-08-21T13:09:48;24.70;72.90
29551;DHT22;16488;52.396;10.696;2022-08-21T13:12:16;24.80;68.80
29551;DHT22;16488;52.396;10.696;2022-08-21T13:14:44;25.00;70.10
29551;DHT22;16488;52.396;10.696;2022-08-21T13:17:14;25.30;70.80
29551;DHT22;16488;52.396;10.696;2022-08-21T13:19:41;25.50;68.00
29551;DHT22;16488;52.396;10.696;2022-08-21T13:22:14;25.60;67.60
29551;DHT22;16488;52.396;10.696;2022-08-21T13:24:40;25.70;68.20
29551;DHT22;16488;52.396;10.696;2022-08-21T13:27:38;25.80;67.80
29551;DHT22;16488;52.396;10.696;2022-08-21T13:30:17;25.80;66.80
29551;DHT22;16488;52.396;10.696;2022-08-21T13:32:48;25.80;68.40
29551;DHT22;16488;52.396;10.696;2022-08-21T13:35:21;25.60;68.80
29551;DHT22;16488;52.396;10.696;2022-08-21T13:37:49;25.50;69.30
29551;DHT22;16488;52.396;10.696;2022-08-21T13:40:20;25.40;69.70
29551;DHT22;16488;52.396;10.696;2022-08-21T13:42:49;25.30;69.60
29551;DHT22;16488;52.396;10.696;2022-08-21T13:45:21;25.00;69.70
29551;DHT22;16488;52.396;10.696;2022-08-21T13:47:48;24.80;70.00
29551;DHT22;16488;52.396;10.696;2022-08-21T13:50:13;24.60;70.10
29551;DHT22;16488;52.396;10.696;2022-08-21T13:52:49;24.80;69.50
29551;DHT22;16488;52.396;10.696;2022-08-21T13:55:18;25.00;68.10
29551;DHT22;16488;52.396;10.696;2022-08-21T13:57:44;25.30;68.40
29551;DHT22;16488;52.396;10.696;2022-08-21T14:00:19;25.50;67.10
29551;DHT22;16488;52.396;10.696;2022-08-21T14:02:49;25.70;65.50
29551;DHT22;16488;52.396;10.696;2022-08-21T14:05:26;25.70;66.20
29551;DHT22;16488;52.396;10.696;2022-08-21T14:08:11;25.80;66.10
29551;DHT22;16488;52.396;10.696;2022-08-21T14:10:43;25.90;65.30
29551;DHT22;16488;52.396;10.696;2022-08-21T14:13:33;26.10;65.00
29551;DHT22;16488;52.396;10.696;2022-08-21T14:16:01;26.00;65.00
29551;DHT22;16488;52.396;10.696;2022-08-21T14:18:27;25.90;65.20
29551;DHT22;16488;52.396;10.696;2022-08-21T14:21:05;25.60;65.50
29551;DHT22;16488;52.396;10.696;2022-08-21T14:23:31;25.40;66.90
29551;DHT22;16488;52.396;10.696;2022-08-21T14:26:02;25.40;66.10
29551;DHT22;16488;52.396;10.696;2022-08-21T14:28:34;25.50;67.10
29551;DHT22;16488;52.396;10.696;2022-08-21T14:31:20;25.70;66.90
29551;DHT22;16488;52.396;10.696;2022-08-21T14:33:46;25.90;65.20
29551;DHT22;16488;52.396;10.696;2022-08-21T14:36:12;26.00;64.00
29551;DHT22;16488;52.396;10.696;2022-08-21T14:38:39;26.20;64.50
29551;DHT22;16488;52.396;10.696;2022-08-21T14:43:38;26.20;62.30
29551;DHT22;16488;52.396;10.696;2022-08-21T14:46:04;25.90;62.70
29551;DHT22;16488;52.396;10.696;2022-08-21T14:48:29;25.80;63.30
29551;DHT22;16488;52.396;10.696;2022-08-21T14:50:55;25.80;63.70
29551;DHT22;16488;52.396;10.696;2022-08-21T14:53:20;25.90;64.50
29551;DHT22;16488;52.396;10.696;2022-08-21T14:55:46;25.90;62.50
29551;DHT22;16488;52.396;10.696;2022-08-21T14:58:30;25.90;63.20
29551;DHT22;16488;52.396;10.696;2022-08-21T15:00:56;25.80;62.90
29551;DHT22;16488;52.396;10.696;2022-08-21T15:03:24;25.80;63.10
29551;DHT22;16488;52.396;10.696;2022-08-21T15:05:49;25.90;62.20
29551;DHT22;16488;52.396;10.696;2022-08-21T15:08:16;25.90;63.40
29551;DHT22;16488;52.396;10.696;2022-08-21T15:10:42;26.00;62.50
29551;DHT22;16488;52.396;10.696;2022-08-21T15:13:08;26.00;61.70
29551;DHT22;16488;52.396;10.696;2022-08-21T15:15:40;25.90;61.00
29551;DHT22;16488;52.396;10.696;2022-08-21T15:18:06;25.90;62.40
29551;DHT22;16488;52.396;10.696;2022-08-21T15:20:32;26.00;63.90
29551;DHT22;16488;52.396;10.696;2022-08-21T15:22:58;26.00;60.70
29551;DHT22;16488;52.396;10.696;2022-08-21T15:25:23;26.20;62.40
29551;DHT22;16488;52.396;10.696;2022-08-21T15:27:49;26.30;61.30
29551;DHT22;16488;52.396;10.696;2022-08-21T15:30:15;26.30;61.10
29551;DHT22;16488;52.396;10.696;2022-08-21T15:32:41;26.40;62.30
29551;DHT22;16488;52.396;10.696;2022-08-21T15:35:07;26.60;60.20
29551;DHT22;16488;52.396;10.696;2022-08-21T15:37:33;26.60;60.30
29551;DHT22;16488;52.396;10.696;2022-08-21T15:39:58;26.40;59.70
29551;DHT22;16488;52.396;10.696;2022-08-21T15:42:25;26.30;60.10
29551;DHT22;16488;52.396;10.696;2022-08-21T15:44:55;26.20;61.30
29551;DHT22;16488;52.396;10.696;2022-08-21T15:47:25;26.10;60.80
29551;DHT22;16488;52.396;10.696;2022-08-21T15:49:53;26.10;60.50
29551;DHT22;16488;52.396;10.696;2022-08-21T15:52:20;26.20;60.80
29551;DHT22;16488;52.396;10.696;2022-08-21T15:54:47;26.20;60.40
29551;DHT22;16488;52.396;10.696;2022-08-21T15:57:15;26.30;61.60
29551;DHT22;16488;52.396;10.696;2022-08-21T15:59:44;26.40;60.20
29551;DHT22;16488;52.396;10.696;2022-08-21T16:02:15;26.40;59.90
29551;DHT22;16488;52.396;10.696;2022-08-21T16:04:41;26.40;59.90
29551;DHT22;16488;52.396;10.696;2022-08-21T16:07:06;26.40;60.10
29551;DHT22;16488;52.396;10.696;2022-08-21T16:09:32;26.50;60.00
29551;DHT22;16488;52.396;10.696;2022-08-21T16:11:59;26.50;60.50
29551;DHT22;16488;52.396;10.696;2022-08-21T16:14:24;26.50;60.30
29551;DHT22;16488;52.396;10.696;2022-08-21T16:16:51;26.50;59.50
29551;DHT22;16488;52.396;10.696;2022-08-21T16:19:17;26.50;59.30
29551;DHT22;16488;52.396;10.696;2022-08-21T16:21:43;26.40;59.00
29551;DHT22;16488;52.396;10.696;2022-08-21T16:24:09;26.30;59.50
29551;DHT22;16488;52.396;10.696;2022-08-21T16:26:35;26.20;59.40
29551;DHT22;16488;52.396;10.696;2022-08-21T16:29:02;26.10;59.90
29551;DHT22;16488;52.396;10.696;2022-08-21T16:31:29;26.00;59.60
29551;DHT22;16488;52.396;10.696;2022-08-21T16:33:56;25.80;60.00
29551;DHT22;16488;52.396;10.696;2022-08-21T16:36:22;25.70;60.40
29551;DHT22;16488;52.396;10.696;2022-08-21T16:38:50;25.70;61.10
29551;DHT22;16488;52.396;10.696;2022-08-21T16:41:18;25.80;61.10
29551;DHT22;16488;52.396;10.696;2022-08-21T16:43:45;25.90;61.30